Pagina principale
METAR-TAF:

METAR-TAF

Aeroporti :

Aeroporto Internazionale di Damasco

Damasco, Siria

latitudine: 33-25N, longitudine: 036-31E, altezza: 608 m

Osservazione

Il bollettino è stato emesso 29 minuti fa, alle 19:00 UTC
Vento 18 kt da sud/sud-ovest
Temperature 24°C
Umidità 61%
Pressione 1008 hPa
Visibilità 10 km o più
nessuna nube inferiore a 1500 m e nessun cumulonembo

METAR: OSDI 141900Z 20018KT CAVOK 24/16 Q1008

Ora: 22:29 (19:29 UTC)

Previsione

Il bollettino è stato emesso 3 ore e 29 minuti fa, alle 16:00 UTC
Previsione valida dal 14 alle 18 UTC al 15 alle 24 UTC
Vento 15 kt da sud-ovest
Visibilità 10 km o più
Poco nuvoloso ad un'altezza di 3000 ft
Temporaneamente
dal 15 alle 12 UTC al 15 alle 18 UTC
Vento 15 kt da ovest/sud-ovest con raffiche fino a 25 kt

TAF: OSDI 141600Z 1418/1524 22015KT 9999 FEW030 TEMPO 1512/1518 25015G25KT

Osservazioni e previsioni meteorologiche di più di 4000 aeroporti (messaggi METAR e TAF).

Le stazioni disponibili sono rappresentate dai dischi gialli e rossi sulla carta.

Puntare il mouse per vedere il nome della stazione.

Clicca sopra per visualizzare le osservazioni e previsioni meteorologiche.

Per cambiare la mappa : fare clic sui pulsanti verdi con una croce nera per ingrandire, il pulsante verde con un trattino per diminuire, o sulla freccia verde per le mappe adiacenti.


METAR-TAF: